METAR Data

Data at: 1153 UTC 21 Apr 2021

METAR for:KPVD (Providence/Green Mem, RI, US)
Text:KPVD 211051Z 15003KT 10SM FEW007 FEW075 10/08 A2984 RMK AO2 SLP104 T01000083
Temperature: 10.0°C ( 50°F)
Dewpoint: 8.3°C ( 47°F) [RH = 89%]
Pressure (altimeter):29.84 inches Hg (1010.6 mb) [Sea level pressure: 1010.4 mb]
Winds:from the SSE (150 degrees) at 3 MPH (3 knots; 1.5 m/s)
Visibility:10 or more sm (16+ km)
Ceiling:at least 12,000 feet AGL
Clouds: few clouds at 700 feet AGL, few clouds at 7500 feet AGL